Time;durP1;ratioP1;P1;durP2;ratioP2;P2;SDS_P1;SDS_P2;PMS_P1;PMS_P2;Temp;Humidity;BMP_temperature;BMP_pressure;BME280_temperature;BME280_humidity;BME280_pressure;Samples;Min_cycle;Max_cycle;Signal;HPM_P1;HPM_P2
2022/12/22 03:28:12;;;;;;;;;;;18.90;47.50;;;;;;4944770;28;19975;-52
2022/12/22 03:30:38;;;;;;;;;;;18.90;47.60;;;;;;4947665;28;20005;-52
2022/12/22 03:33:03;;;;;;;;;;;18.80;47.70;;;;;;4952053;28;19919;-52
2022/12/22 03:35:29;;;;;;;;;;;18.70;47.80;;;;;;4947565;28;19914;-52
2022/12/22 03:37:54;;;;;;;;;;;18.70;47.80;;;;;;4946508;28;20335;-52
2022/12/22 03:40:20;;;;;;;;;;;18.60;47.90;;;;;;4952561;28;20000;-52
2022/12/22 03:48:13;;;;;;;;;;;18.60;48.10;;;;;;4946580;28;19926;-52
2022/12/22 03:50:39;;;;;;;;;;;18.60;48.40;;;;;;4944345;28;19941;-52
2022/12/22 03:53:04;;;;;;;;;;;18.60;48.90;;;;;;4952532;28;19919;-52
2022/12/22 03:55:30;;;;;;;;;;;18.60;48.20;;;;;;4945755;28;19919;-52
2022/12/22 03:57:55;;;;;;;;;;;18.70;48.10;;;;;;4945382;28;19966;-52
2022/12/22 04:00:21;;;;;;;;;;;18.80;47.80;;;;;;4944365;28;20387;-52
2022/12/22 04:02:46;;;;;;;;;;;19.00;47.70;;;;;;4946538;28;20013;-52
2022/12/22 04:05:12;;;;;;;;;;;19.20;47.40;;;;;;4946402;28;20566;-52
2022/12/22 04:07:37;;;;;;;;;;;19.40;46.90;;;;;;4945917;28;19963;-52
2022/12/22 04:12:56;;;;;;;;;;;19.60;46.10;;;;;;4945812;28;19941;-52
2022/12/22 04:15:21;;;;;;;;;;;19.70;46.10;;;;;;4940508;28;19922;-53
2022/12/22 04:17:47;;;;;;;;;;;19.70;45.90;;;;;;4945942;28;19914;-52
2022/12/22 04:20:12;;;;;;;;;;;19.70;45.90;;;;;;4947899;28;19922;-52
2022/12/22 04:22:38;;;;;;;;;;;19.70;46.00;;;;;;4944792;28;19922;-52
2022/12/22 04:25:03;;;;;;;;;;;19.60;46.10;;;;;;4944015;28;19965;-52
2022/12/22 04:27:29;;;;;;;;;;;19.50;46.30;;;;;;4948920;28;19984;-52
2022/12/22 04:29:54;;;;;;;;;;;19.40;46.60;;;;;;4942184;28;19918;-52
2022/12/22 04:32:20;;;;;;;;;;;19.20;46.70;;;;;;4943430;28;19918;-52
2022/12/22 04:34:45;;;;;;;;;;;19.10;47.60;;;;;;4945952;28;19915;-52
2022/12/22 04:37:10;;;;;;;;;;;19.00;47.30;;;;;;4946906;28;19918;-52
2022/12/22 04:39:36;;;;;;;;;;;18.90;47.60;;;;;;4945201;28;19922;-52
2022/12/22 04:42:01;;;;;;;;;;;18.80;47.60;;;;;;4944329;28;19919;-52
2022/12/22 04:44:27;;;;;;;;;;;18.80;48.00;;;;;;4944869;28;19918;-52
2022/12/22 04:46:52;;;;;;;;;;;18.70;48.00;;;;;;4946085;28;19961;-53
2022/12/22 04:49:18;;;;;;;;;;;18.70;48.20;;;;;;4947088;28;19918;-52
2022/12/22 04:51:43;;;;;;;;;;;18.60;48.00;;;;;;4948668;28;20044;-52
2022/12/22 04:54:09;;;;;;;;;;;18.60;48.20;;;;;;4943997;28;20394;-52
2022/12/22 04:56:35;;;;;;;;;;;18.60;48.20;;;;;;4945313;28;19921;-52
2022/12/22 04:59:00;;;;;;;;;;;18.50;48.80;;;;;;4948422;28;19915;-52
2022/12/22 05:01:26;;;;;;;;;;;18.50;48.10;;;;;;4947206;28;19946;-52
2022/12/22 05:03:51;;;;;;;;;;;18.50;48.30;;;;;;4947182;28;19915;-52
2022/12/22 05:06:17;;;;;;;;;;;18.60;48.50;;;;;;4951989;29;19922;-52
2022/12/22 05:08:42;;;;;;;;;;;18.60;48.30;;;;;;4952911;28;20037;-52
2022/12/22 05:11:08;;;;;;;;;;;18.70;48.00;;;;;;4958268;28;20557;-52
2022/12/22 05:13:33;;;;;;;;;;;18.80;47.70;;;;;;4958411;28;19994;-52
2022/12/22 05:16:25;;;;;;;;;;;19.00;47.50;;;;;;4951413;29;19919;-52
2022/12/22 05:18:50;;;;;;;;;;;19.10;47.20;;;;;;4951072;29;19915;-52
2022/12/22 05:21:17;;;;;;;;;;;19.20;47.00;;;;;;4955850;28;19915;-52
2022/12/22 05:23:43;;;;;;;;;;;19.20;46.70;;;;;;4952487;28;19918;-52
2022/12/22 05:26:08;;;;;;;;;;;19.30;46.80;;;;;;4950135;28;20044;-52
2022/12/22 05:28:34;;;;;;;;;;;19.20;46.70;;;;;;4946208;28;20001;-52
2022/12/22 05:31:06;;;;;;;;;;;19.30;46.90;;;;;;4944556;28;20501;-52
2022/12/22 05:33:31;;;;;;;;;;;19.20;46.70;;;;;;4945962;28;20266;-52
2022/12/22 05:35:57;;;;;;;;;;;19.20;46.90;;;;;;4943385;28;19922;-52
2022/12/22 05:38:22;;;;;;;;;;;19.20;46.90;;;;;;4942801;28;19976;-52
2022/12/22 05:40:48;;;;;;;;;;;19.20;47.00;;;;;;4946111;28;19919;-52
2022/12/22 05:43:13;;;;;;;;;;;19.10;47.10;;;;;;4943867;28;19929;-52
2022/12/22 05:45:38;;;;;;;;;;;19.00;47.20;;;;;;4947431;28;19968;-52
2022/12/22 05:48:04;;;;;;;;;;;18.90;47.50;;;;;;4945638;28;19988;-52
2022/12/22 05:50:31;;;;;;;;;;;18.90;47.60;;;;;;4944064;28;20313;-52
2022/12/22 05:52:57;;;;;;;;;;;18.80;47.70;;;;;;4944516;28;19971;-52
2022/12/22 05:55:22;;;;;;;;;;;18.80;47.80;;;;;;4945984;28;19922;-52
2022/12/22 05:57:48;;;;;;;;;;;18.70;47.90;;;;;;4944765;28;19918;-52
2022/12/22 06:00:13;;;;;;;;;;;18.70;48.00;;;;;;4942639;28;19915;-52
2022/12/22 06:02:39;;;;;;;;;;;18.70;48.00;;;;;;4945611;28;19978;-52
2022/12/22 06:05:05;;;;;;;;;;;18.60;48.00;;;;;;4944667;28;19919;-52
2022/12/22 06:07:30;;;;;;;;;;;18.60;48.20;;;;;;4944115;28;19918;-52
2022/12/22 06:09:56;;;;;;;;;;;18.50;48.30;;;;;;4944290;28;20301;-52
2022/12/22 06:12:21;;;;;;;;;;;18.50;48.20;;;;;;4944673;28;19965;-52
2022/12/22 06:14:47;;;;;;;;;;;18.50;48.30;;;;;;4944133;28;19923;-52
2022/12/22 06:17:12;;;;;;;;;;;18.60;48.30;;;;;;4946063;28;19922;-52
2022/12/22 06:19:37;;;;;;;;;;;18.60;48.10;;;;;;4952139;28;20084;-52
2022/12/22 06:22:03;;;;;;;;;;;18.70;47.90;;;;;;4951320;29;19915;-52
2022/12/22 06:24:29;;;;;;;;;;;18.70;48.00;;;;;;4950161;28;20359;-52
2022/12/22 06:26:54;;;;;;;;;;;18.70;47.70;;;;;;4951275;29;20358;-52
2022/12/22 06:29:20;;;;;;;;;;;18.80;47.80;;;;;;4946381;28;20307;-52
2022/12/22 06:31:45;;;;;;;;;;;18.90;47.60;;;;;;4942299;28;19927;-51
2022/12/22 06:34:11;;;;;;;;;;;18.90;47.40;;;;;;4941966;28;19937;-51
2022/12/22 06:36:37;;;;;;;;;;;18.90;47.40;;;;;;4945083;28;19953;-52
2022/12/22 06:39:03;;;;;;;;;;;18.90;47.50;;;;;;4944280;28;20302;-52
2022/12/22 06:44:13;;;;;;;;;;;18.90;47.30;;;;;;4942593;28;20298;-52
2022/12/22 06:46:38;;;;;;;;;;;18.90;47.50;;;;;;4943582;28;19923;-52
2022/12/22 06:49:04;;;;;;;;;;;18.90;47.60;;;;;;4943474;28;19915;-51
2022/12/22 06:51:29;;;;;;;;;;;18.80;47.60;;;;;;4968151;28;19921;-52
2022/12/22 06:53:55;;;;;;;;;;;18.70;47.70;;;;;;4970900;28;20440;-51
2022/12/22 06:56:20;;;;;;;;;;;18.70;47.90;;;;;;4950621;29;20347;-52
2022/12/22 06:58:46;;;;;;;;;;;18.60;48.00;;;;;;4951838;28;20375;-52
2022/12/22 07:01:11;;;;;;;;;;;18.50;48.00;;;;;;4954987;28;19921;-52
2022/12/22 07:03:37;;;;;;;;;;;18.60;48.20;;;;;;4968457;28;19921;-53
2022/12/22 07:06:02;;;;;;;;;;;18.50;48.30;;;;;;4950665;28;19936;-53
2022/12/22 07:08:27;;;;;;;;;;;18.50;48.40;;;;;;4949916;28;19972;-52
2022/12/22 07:10:59;;;;;;;;;;;18.50;49.00;;;;;;4954279;28;19953;-52
2022/12/22 07:13:26;;;;;;;;;;;18.50;48.30;;;;;;4949460;29;19926;-52
2022/12/22 07:15:51;;;;;;;;;;;18.50;48.30;;;;;;4939306;28;19914;-52
2022/12/22 07:18:17;;;;;;;;;;;18.50;48.20;;;;;;4953769;29;19980;-52
2022/12/22 07:20:42;;;;;;;;;;;18.60;48.20;;;;;;4953902;28;20390;-52
2022/12/22 07:23:08;;;;;;;;;;;18.70;47.90;;;;;;4953582;29;20385;-52
2022/12/22 07:25:33;;;;;;;;;;;18.80;47.70;;;;;;4953734;28;19915;-52
2022/12/22 07:27:59;;;;;;;;;;;18.80;47.60;;;;;;4952917;28;19919;-54
2022/12/22 07:30:24;;;;;;;;;;;18.90;47.40;;;;;;4958311;28;20401;-54
2022/12/22 07:32:49;;;;;;;;;;;19.00;47.30;;;;;;4951961;28;20444;-52
2022/12/22 07:35:15;;;;;;;;;;;19.00;47.20;;;;;;4945539;28;20456;-54
2022/12/22 07:37:40;;;;;;;;;;;19.00;47.20;;;;;;4945165;28;20382;-52
2022/12/22 07:40:06;;;;;;;;;;;19.00;47.20;;;;;;4946773;28;19941;-52
2022/12/22 07:42:43;;;;;;;;;;;19.00;47.30;;;;;;4946465;28;19914;-52
2022/12/22 07:45:12;;;;;;;;;;;19.00;47.30;;;;;;4945091;28;19915;-52
2022/12/22 07:47:38;;;;;;;;;;;19.00;47.40;;;;;;4945788;28;20356;-52
2022/12/22 07:52:48;;;;;;;;;;;18.80;47.70;;;;;;4944763;28;19973;-52
2022/12/22 07:55:13;;;;;;;;;;;18.70;48.00;;;;;;4950337;28;19950;-51
2022/12/22 07:57:39;;;;;;;;;;;18.70;48.10;;;;;;4944531;28;20019;-53
2022/12/22 08:00:05;;;;;;;;;;;18.70;48.10;;;;;;4946288;28;19972;-53
2022/12/22 08:02:31;;;;;;;;;;;18.70;48.20;;;;;;4954376;28;19914;-53
2022/12/22 08:04:56;;;;;;;;;;;18.60;48.20;;;;;;4952697;29;20013;-53
2022/12/22 08:07:21;;;;;;;;;;;18.60;48.20;;;;;;4950249;28;19922;-53
2022/12/22 08:09:47;;;;;;;;;;;18.60;48.40;;;;;;4955042;28;19921;-53
2022/12/22 08:12:12;;;;;;;;;;;18.50;48.30;;;;;;4951645;28;19980;-53
2022/12/22 08:14:38;;;;;;;;;;;18.50;48.40;;;;;;4954644;28;19918;-53
2022/12/22 08:17:03;;;;;;;;;;;18.50;48.60;;;;;;4949938;29;20371;-53
2022/12/22 08:19:28;;;;;;;;;;;18.50;48.50;;;;;;4948979;28;20378;-53
2022/12/22 08:21:54;;;;;;;;;;;18.50;48.70;;;;;;4945361;28;20375;-53
2022/12/22 08:24:20;;;;;;;;;;;18.70;48.20;;;;;;4936751;28;20474;-53
2022/12/22 08:26:45;;;;;;;;;;;19.40;46.80;;;;;;4951440;28;20390;-55
2022/12/22 08:29:21;;;;;;;;;;;20.40;45.00;;;;;;4971785;28;19957;-54
2022/12/22 08:31:46;;;;;;;;;;;21.10;43.70;;;;;;4952493;28;19918;-51
2022/12/22 08:34:13;;;;;;;;;;;21.50;42.80;;;;;;4956920;28;19918;-52
2022/12/22 08:36:39;;;;;;;;;;;21.70;42.30;;;;;;4954400;28;19918;-52
2022/12/22 08:39:05;;;;;;;;;;;22.00;42.00;;;;;;4951604;28;20306;-51
2022/12/22 08:41:48;;;;;;;;;;;22.10;41.70;;;;;;4960933;28;19915;-52
2022/12/22 08:44:14;;;;;;;;;;;22.30;41.70;;;;;;4958559;28;20433;-52
2022/12/22 08:46:39;;;;;;;;;;;22.40;41.40;;;;;;5004002;28;20013;-52
2022/12/22 08:49:05;;;;;;;;;;;22.50;41.10;;;;;;4960536;28;19943;-53
2022/12/22 08:51:30;;;;;;;;;;;22.60;41.00;;;;;;4962981;28;20277;-53
2022/12/22 08:53:56;;;;;;;;;;;22.70;40.90;;;;;;4961637;28;20005;-52
2022/12/22 08:56:21;;;;;;;;;;;22.80;40.70;;;;;;4956719;28;19915;-52
2022/12/22 08:58:46;;;;;;;;;;;22.80;40.60;;;;;;4962954;28;20335;-52
2022/12/22 09:01:18;;;;;;;;;;;23.00;40.60;;;;;;4950549;28;19953;-51
2022/12/22 09:03:50;;;;;;;;;;;23.00;40.40;;;;;;4954208;28;20281;-53
2022/12/22 09:06:19;;;;;;;;;;;23.00;40.40;;;;;;4956648;28;20406;-53
2022/12/22 09:08:44;;;;;;;;;;;23.10;40.40;;;;;;4967257;28;19918;-52
2022/12/22 09:11:09;;;;;;;;;;;23.10;40.40;;;;;;4964809;28;19918;-52
2022/12/22 09:13:35;;;;;;;;;;;23.10;40.30;;;;;;4956863;28;19918;-54
2022/12/22 09:16:04;;;;;;;;;;;23.10;40.30;;;;;;4951692;28;19984;-53
2022/12/22 09:18:30;;;;;;;;;;;23.10;40.30;;;;;;4952458;28;19914;-52
2022/12/22 09:20:55;;;;;;;;;;;23.20;40.30;;;;;;4963049;28;19914;-53
2022/12/22 09:23:21;;;;;;;;;;;23.20;40.30;;;;;;4963631;28;19918;-52
2022/12/22 09:25:46;;;;;;;;;;;23.20;40.30;;;;;;4952267;28;19925;-53
2022/12/22 09:28:12;;;;;;;;;;;23.10;40.30;;;;;;4951079;28;19914;-53
2022/12/22 09:30:37;;;;;;;;;;;23.20;40.40;;;;;;4951846;29;19945;-53
2022/12/22 09:33:02;;;;;;;;;;;23.20;40.40;;;;;;4951754;28;19931;-53
2022/12/22 09:35:28;;;;;;;;;;;23.20;40.40;;;;;;4952065;29;19950;-53
2022/12/22 09:37:53;;;;;;;;;;;23.20;40.50;;;;;;4951164;29;19914;-53
2022/12/22 09:40:21;;;;;;;;;;;23.20;40.60;;;;;;4955496;28;20000;-53
2022/12/22 09:42:46;;;;;;;;;;;23.20;40.90;;;;;;4955333;28;19910;-54
2022/12/22 09:45:12;;;;;;;;;;;23.20;41.20;;;;;;4971039;28;20355;-54
2022/12/22 09:47:39;;;;;;;;;;;23.20;41.30;;;;;;4957888;28;20017;-53
2022/12/22 09:50:05;;;;;;;;;;;23.20;41.30;;;;;;5006447;28;19918;-53
2022/12/22 09:52:33;;;;;;;;;;;23.10;41.30;;;;;;5017049;28;20388;-52
2022/12/22 09:54:59;;;;;;;;;;;23.10;41.30;;;;;;5052095;28;20348;-53
2022/12/22 09:57:30;;;;;;;;;;;23.10;41.30;;;;;;4989607;28;19927;-52
2022/12/22 10:00:26;;;;;;;;;;;23.10;41.30;;;;;;4948471;28;19921;-52
2022/12/22 10:02:57;;;;;;;;;;;23.30;41.30;;;;;;4954621;28;19915;-52
2022/12/22 10:05:27;;;;;;;;;;;23.20;41.20;;;;;;4951407;28;20330;-53
2022/12/22 10:07:52;;;;;;;;;;;23.20;41.30;;;;;;4951820;29;20291;-52
2022/12/22 10:10:27;;;;;;;;;;;23.20;41.20;;;;;;5016843;28;19915;-52
2022/12/22 10:12:59;;;;;;;;;;;23.20;41.20;;;;;;4950957;29;19914;-52
2022/12/22 10:15:24;;;;;;;;;;;23.30;41.20;;;;;;4951671;28;20394;-53
2022/12/22 10:17:50;;;;;;;;;;;23.30;41.00;;;;;;4952166;28;19911;-52
2022/12/22 10:20:19;;;;;;;;;;;23.30;41.10;;;;;;4951307;28;20014;-52
2022/12/22 10:22:49;;;;;;;;;;;23.30;41.00;;;;;;4951445;28;19918;-52
2022/12/22 10:25:29;;;;;;;;;;;23.40;41.10;;;;;;4957983;28;19914;-52
2022/12/22 10:27:56;;;;;;;;;;;23.40;41.10;;;;;;4970350;28;19994;-52
2022/12/22 10:30:25;;;;;;;;;;;23.40;40.90;;;;;;4970374;28;19910;-52
2022/12/22 10:33:02;;;;;;;;;;;23.30;41.00;;;;;;4961288;28;19930;-53
2022/12/22 10:35:41;;;;;;;;;;;23.40;41.00;;;;;;4964978;28;19984;-53
2022/12/22 10:38:27;;;;;;;;;;;23.30;40.90;;;;;;4973914;28;20068;-53
2022/12/22 10:41:01;;;;;;;;;;;23.40;41.00;;;;;;4973266;28;20293;-53
2022/12/22 10:43:28;;;;;;;;;;;23.30;41.00;;;;;;4960211;28;19973;-53
2022/12/22 10:45:53;;;;;;;;;;;23.40;40.90;;;;;;4937556;29;19918;-53
2022/12/22 10:48:26;;;;;;;;;;;23.40;40.90;;;;;;4954728;28;19910;-53
2022/12/22 10:50:51;;;;;;;;;;;23.40;40.90;;;;;;4954933;28;19937;-53
2022/12/22 10:53:17;;;;;;;;;;;23.40;40.80;;;;;;5052870;28;19916;-54
2022/12/22 10:55:43;;;;;;;;;;;23.40;40.80;;;;;;5055279;28;19921;-53
2022/12/22 10:58:08;;;;;;;;;;;23.40;40.80;;;;;;5054454;28;19963;-54
2022/12/22 11:00:34;;;;;;;;;;;23.40;40.80;;;;;;5055541;28;19909;-53
2022/12/22 11:03:00;;;;;;;;;;;23.40;40.80;;;;;;5055361;28;19963;-53
2022/12/22 11:05:25;;;;;;;;;;;23.40;40.90;;;;;;5037460;28;20291;-53
2022/12/22 11:07:51;;;;;;;;;;;23.40;41.00;;;;;;5028779;28;20279;-54
2022/12/22 11:10:18;;;;;;;;;;;23.30;40.90;;;;;;4936904;28;19915;-54
2022/12/22 11:12:56;;;;;;;;;;;23.40;40.90;;;;;;4955174;28;19918;-53
2022/12/22 11:15:22;;;;;;;;;;;23.40;40.90;;;;;;4935463;28;20400;-53
2022/12/22 11:17:51;;;;;;;;;;;23.50;40.80;;;;;;4954222;29;19965;-54
2022/12/22 11:20:34;;;;;;;;;;;23.50;40.80;;;;;;4952390;28;20375;-53
2022/12/22 11:23:18;;;;;;;;;;;23.50;40.80;;;;;;4953560;28;20001;-53
2022/12/22 11:25:48;;;;;;;;;;;23.50;40.70;;;;;;4950039;28;19922;-53
2022/12/22 11:28:20;;;;;;;;;;;23.50;40.70;;;;;;4970587;28;19926;-53
2022/12/22 11:30:59;;;;;;;;;;;23.50;40.80;;;;;;4957017;28;20298;-52
2022/12/22 11:33:28;;;;;;;;;;;23.50;40.90;;;;;;4946802;28;19931;-52
2022/12/22 11:35:56;;;;;;;;;;;23.50;40.90;;;;;;4957411;28;20294;-51
2022/12/22 11:38:34;;;;;;;;;;;23.50;41.00;;;;;;4947213;28;19926;-52
2022/12/22 11:41:02;;;;;;;;;;;23.50;41.00;;;;;;4955258;28;19915;-52
2022/12/22 11:43:33;;;;;;;;;;;23.50;40.90;;;;;;4972442;28;19910;-51
2022/12/22 11:45:58;;;;;;;;;;;23.50;40.90;;;;;;4950620;29;19922;-52
2022/12/22 11:48:39;;;;;;;;;;;23.50;40.90;;;;;;4953357;28;19914;-50
2022/12/22 11:51:09;;;;;;;;;;;23.50;41.10;;;;;;4956546;28;19918;-51
2022/12/22 11:53:43;;;;;;;;;;;23.50;41.10;;;;;;4972268;28;19968;-51
2022/12/22 11:56:09;;;;;;;;;;;23.40;41.20;;;;;;4952508;29;19921;-51
2022/12/22 11:58:53;;;;;;;;;;;23.40;41.20;;;;;;4953248;28;20010;-52
2022/12/22 12:01:32;;;;;;;;;;;23.50;41.20;;;;;;4959831;28;19968;-51
2022/12/22 12:04:16;;;;;;;;;;;23.60;41.20;;;;;;4952263;28;19915;-52
2022/12/22 12:06:49;;;;;;;;;;;23.60;41.00;;;;;;4965360;28;19925;-52
2022/12/22 12:09:17;;;;;;;;;;;23.70;41.00;;;;;;5033884;28;19909;-51
2022/12/22 12:11:49;;;;;;;;;;;23.70;41.00;;;;;;5026449;28;19921;-52
2022/12/22 12:14:21;;;;;;;;;;;23.60;41.10;;;;;;4952589;28;19922;-51
2022/12/22 12:16:46;;;;;;;;;;;23.50;41.20;;;;;;4951270;28;20329;-53
2022/12/22 12:19:34;;;;;;;;;;;23.50;41.40;;;;;;4950677;28;19914;-53
2022/12/22 12:22:00;;;;;;;;;;;23.40;41.40;;;;;;4959381;28;19915;-52
2022/12/22 12:24:32;;;;;;;;;;;23.40;41.60;;;;;;4942425;28;19921;-52
2022/12/22 12:27:04;;;;;;;;;;;23.20;41.60;;;;;;4972098;28;19921;-52
2022/12/22 12:29:36;;;;;;;;;;;23.20;41.80;;;;;;4953652;28;19914;-51
2022/12/22 12:32:09;;;;;;;;;;;23.20;41.80;;;;;;4943868;28;19975;-52
2022/12/22 12:34:36;;;;;;;;;;;23.30;41.70;;;;;;4953803;28;19915;-52
2022/12/22 12:37:07;;;;;;;;;;;23.40;41.60;;;;;;5006880;28;19957;-53
2022/12/22 12:39:51;;;;;;;;;;;23.50;41.40;;;;;;4949739;28;20492;-52
2022/12/22 12:42:22;;;;;;;;;;;23.60;41.30;;;;;;4952343;29;19926;-52
2022/12/22 12:44:51;;;;;;;;;;;23.60;41.20;;;;;;4934766;28;20382;-51
2022/12/22 12:47:20;;;;;;;;;;;23.50;41.20;;;;;;4951962;28;19937;-52
2022/12/22 12:49:52;;;;;;;;;;;23.50;41.50;;;;;;4952286;28;19919;-51
2022/12/22 12:52:17;;;;;;;;;;;23.30;41.70;;;;;;4994469;28;19979;-51
2022/12/22 12:54:46;;;;;;;;;;;23.20;41.90;;;;;;4939505;29;19927;-51
2022/12/22 12:57:22;;;;;;;;;;;23.20;41.90;;;;;;4956385;28;20385;-51
2022/12/22 12:59:48;;;;;;;;;;;23.30;41.70;;;;;;4981927;28;19916;-51
2022/12/22 13:02:25;;;;;;;;;;;23.50;41.60;;;;;;4952147;28;20426;-52
2022/12/22 13:05:00;;;;;;;;;;;23.60;41.40;;;;;;4956738;28;20272;-52
2022/12/22 13:07:44;;;;;;;;;;;23.60;41.30;;;;;;4953006;28;19940;-53
2022/12/22 13:10:22;;;;;;;;;;;23.70;41.20;;;;;;4951425;29;19956;-52
2022/12/22 13:12:49;;;;;;;;;;;23.80;41.20;;;;;;4951464;28;19914;-51
2022/12/22 13:15:27;;;;;;;;;;;23.80;41.20;;;;;;4951743;28;20005;-51
2022/12/22 13:17:53;;;;;;;;;;;23.80;41.10;;;;;;4951859;28;19911;-51
2022/12/22 13:20:20;;;;;;;;;;;23.80;41.10;;;;;;4957748;28;19921;-52
2022/12/22 13:22:46;;;;;;;;;;;23.80;41.10;;;;;;4966501;28;19922;-52
2022/12/22 13:25:13;;;;;;;;;;;23.80;41.20;;;;;;4959411;28;20462;-52
2022/12/22 13:27:38;;;;;;;;;;;23.70;41.20;;;;;;4952913;28;20013;-52
2022/12/22 13:30:04;;;;;;;;;;;23.70;41.20;;;;;;4949144;28;19925;-52
2022/12/22 13:32:32;;;;;;;;;;;23.70;41.30;;;;;;4950150;28;19977;-51
2022/12/22 13:35:00;;;;;;;;;;;23.70;41.30;;;;;;4934385;28;19953;-52
2022/12/22 13:37:26;;;;;;;;;;;23.70;41.20;;;;;;4933901;28;19914;-51
2022/12/22 13:40:07;;;;;;;;;;;23.80;41.30;;;;;;4950691;28;19915;-52
2022/12/22 13:43:02;;;;;;;;;;;23.70;41.30;;;;;;4953749;28;19911;-52
2022/12/22 13:45:37;;;;;;;;;;;23.70;41.50;;;;;;4974053;28;19925;-51
2022/12/22 13:48:16;;;;;;;;;;;23.60;41.70;;;;;;4940190;28;20259;-52
2022/12/22 13:50:51;;;;;;;;;;;23.50;41.70;;;;;;4952896;28;19961;-52
2022/12/22 13:53:18;;;;;;;;;;;23.50;41.90;;;;;;4935526;28;19918;-51
2022/12/22 13:55:45;;;;;;;;;;;23.40;41.90;;;;;;4961604;28;19979;-54
2022/12/22 13:58:30;;;;;;;;;;;23.40;42.00;;;;;;4951232;28;20643;-52
2022/12/22 14:00:59;;;;;;;;;;;23.30;42.00;;;;;;4951518;28;19915;-51
2022/12/22 14:03:24;;;;;;;;;;;23.20;42.30;;;;;;4950799;28;19915;-51
2022/12/22 14:05:50;;;;;;;;;;;23.10;42.50;;;;;;4951799;28;20003;-51
2022/12/22 14:08:15;;;;;;;;;;;23.10;42.50;;;;;;4950653;28;19917;-52
2022/12/22 14:10:42;;;;;;;;;;;23.20;42.40;;;;;;4932684;29;21588;-51
2022/12/22 14:13:12;;;;;;;;;;;23.30;42.30;;;;;;4988787;28;19976;-50
2022/12/22 14:15:38;;;;;;;;;;;23.30;42.20;;;;;;4933652;29;20301;-52
2022/12/22 14:18:03;;;;;;;;;;;23.20;42.30;;;;;;4952441;28;19999;-51
2022/12/22 14:20:31;;;;;;;;;;;23.20;42.40;;;;;;4950540;28;19922;-52
2022/12/22 14:23:04;;;;;;;;;;;23.30;42.30;;;;;;4949567;29;19922;-52
2022/12/22 14:25:31;;;;;;;;;;;23.30;42.00;;;;;;4952196;28;19975;-53
2022/12/22 14:27:56;;;;;;;;;;;23.40;41.90;;;;;;4959415;28;19918;-52
2022/12/22 14:30:22;;;;;;;;;;;23.50;41.90;;;;;;4997918;28;19921;-51
2022/12/22 14:32:48;;;;;;;;;;;23.50;41.70;;;;;;4961266;28;19923;-51
2022/12/22 14:35:20;;;;;;;;;;;23.50;41.60;;;;;;4938419;28;19926;-53
2022/12/22 14:37:49;;;;;;;;;;;23.60;41.50;;;;;;4954925;28;19919;-51
2022/12/22 14:40:30;;;;;;;;;;;23.70;41.40;;;;;;4954556;28;20424;-52
2022/12/22 14:42:56;;;;;;;;;;;23.70;41.30;;;;;;4954506;28;20354;-51
2022/12/22 14:45:21;;;;;;;;;;;23.80;41.20;;;;;;4948596;29;19950;-51
2022/12/22 14:47:47;;;;;;;;;;;23.70;41.40;;;;;;4928310;28;19919;-51
2022/12/22 14:50:16;;;;;;;;;;;23.70;41.50;;;;;;4949660;28;19964;-52
2022/12/22 14:52:45;;;;;;;;;;;23.70;41.50;;;;;;5023187;28;19913;-52
2022/12/22 14:55:21;;;;;;;;;;;23.70;41.40;;;;;;4950921;28;19918;-52
2022/12/22 14:57:49;;;;;;;;;;;23.80;41.30;;;;;;4951933;28;19933;-52
2022/12/22 15:00:20;;;;;;;;;;;23.80;41.20;;;;;;4947026;28;20239;-52
2022/12/22 15:02:52;;;;;;;;;;;23.80;41.20;;;;;;4951786;28;19922;-52
2022/12/22 15:05:24;;;;;;;;;;;23.80;41.10;;;;;;4964679;28;19926;-52
2022/12/22 15:07:50;;;;;;;;;;;23.80;41.00;;;;;;4950537;29;20325;-52
2022/12/22 15:10:15;;;;;;;;;;;23.90;41.00;;;;;;4948817;28;19910;-52
2022/12/22 15:12:41;;;;;;;;;;;23.90;40.90;;;;;;4950286;28;19945;-51
2022/12/22 15:15:19;;;;;;;;;;;23.90;40.80;;;;;;4956242;28;19910;-50
2022/12/22 15:17:45;;;;;;;;;;;24.00;40.90;;;;;;4951127;28;19992;-52
2022/12/22 15:20:15;;;;;;;;;;;24.00;40.90;;;;;;4954489;28;20001;-51
2022/12/22 15:22:40;;;;;;;;;;;24.00;40.80;;;;;;4956234;28;20382;-52
2022/12/22 15:25:13;;;;;;;;;;;24.00;40.80;;;;;;4951387;28;19936;-51
2022/12/22 15:27:39;;;;;;;;;;;24.00;40.80;;;;;;4953103;28;19919;-51
2022/12/22 15:30:04;;;;;;;;;;;24.00;40.60;;;;;;4952939;29;19968;-52
2022/12/22 15:32:30;;;;;;;;;;;23.90;40.50;;;;;;4932276;28;20378;-52
2022/12/22 15:34:55;;;;;;;;;;;23.90;40.60;;;;;;4934959;28;19922;-52
2022/12/22 15:37:21;;;;;;;;;;;24.00;40.60;;;;;;4951662;28;19915;-52
2022/12/22 15:39:46;;;;;;;;;;;24.10;40.40;;;;;;4952188;28;19987;-52
2022/12/22 15:42:12;;;;;;;;;;;24.30;40.20;;;;;;4949244;28;19936;-50
2022/12/22 15:44:37;;;;;;;;;;;24.50;40.00;;;;;;4957967;28;19915;-51
2022/12/22 15:47:03;;;;;;;;;;;24.60;39.90;;;;;;4953208;28;19919;-51
2022/12/22 15:49:28;;;;;;;;;;;24.70;39.70;;;;;;4987883;28;19917;-51
2022/12/22 15:51:54;;;;;;;;;;;24.80;39.70;;;;;;4969407;28;20337;-51
2022/12/22 15:54:20;;;;;;;;;;;24.80;39.60;;;;;;4940040;28;20367;-49
2022/12/22 15:56:45;;;;;;;;;;;24.80;39.40;;;;;;4935630;28;19930;-52
2022/12/22 15:59:18;;;;;;;;;;;24.90;39.60;;;;;;4985049;28;20366;-53
2022/12/22 16:01:43;;;;;;;;;;;24.80;39.50;;;;;;4952627;28;19919;-51
2022/12/22 16:04:09;;;;;;;;;;;24.90;39.50;;;;;;4954741;28;19915;-51
2022/12/22 16:06:34;;;;;;;;;;;24.90;39.50;;;;;;4959957;28;20446;-51
2022/12/22 16:09:00;;;;;;;;;;;24.90;39.30;;;;;;4949429;28;19915;-51
2022/12/22 16:11:25;;;;;;;;;;;24.90;39.40;;;;;;4944600;28;20002;-51
2022/12/22 16:13:51;;;;;;;;;;;24.90;39.60;;;;;;4962662;28;19961;-51
2022/12/22 16:16:16;;;;;;;;;;;24.90;39.60;;;;;;4953078;28;19925;-51
2022/12/22 16:18:41;;;;;;;;;;;24.90;39.70;;;;;;4950902;28;20333;-52
2022/12/22 16:21:12;;;;;;;;;;;24.90;39.70;;;;;;4952467;28;20338;-52
2022/12/22 16:23:38;;;;;;;;;;;24.90;39.70;;;;;;4951676;28;19911;-50
2022/12/22 16:26:04;;;;;;;;;;;24.90;39.70;;;;;;4950765;29;19925;-53
2022/12/22 16:28:30;;;;;;;;;;;24.90;39.70;;;;;;4952509;28;19911;-50
2022/12/22 16:30:56;;;;;;;;;;;24.80;39.80;;;;;;4952735;28;19918;-51
2022/12/22 16:33:21;;;;;;;;;;;24.80;39.80;;;;;;4950735;28;19944;-52
2022/12/22 16:35:46;;;;;;;;;;;24.90;39.80;;;;;;4950559;28;19918;-51
2022/12/22 16:38:12;;;;;;;;;;;24.90;39.70;;;;;;4947416;28;19915;-52
2022/12/22 16:40:42;;;;;;;;;;;24.90;39.70;;;;;;4951715;28;20364;-51
2022/12/22 16:43:12;;;;;;;;;;;24.90;39.70;;;;;;4950673;28;19915;-51
2022/12/22 16:45:37;;;;;;;;;;;24.90;39.60;;;;;;4935447;28;19918;-51
2022/12/22 16:48:06;;;;;;;;;;;24.80;39.70;;;;;;4965877;28;19918;-51
2022/12/22 16:50:32;;;;;;;;;;;24.80;39.90;;;;;;4954131;28;20321;-50
2022/12/22 16:53:03;;;;;;;;;;;24.70;40.00;;;;;;4945484;28;19937;-51
2022/12/22 16:55:29;;;;;;;;;;;24.70;40.00;;;;;;4953680;28;20266;-51
2022/12/22 16:57:54;;;;;;;;;;;24.70;40.00;;;;;;4955857;28;20052;-51
2022/12/22 17:00:21;;;;;;;;;;;24.80;39.90;;;;;;4950544;29;19915;-53
2022/12/22 17:02:57;;;;;;;;;;;24.90;39.90;;;;;;4950482;28;19914;-51
2022/12/22 17:05:25;;;;;;;;;;;24.90;39.80;;;;;;4954127;28;19989;-51
2022/12/22 17:07:50;;;;;;;;;;;24.90;39.80;;;;;;4958923;28;19958;-51
2022/12/22 17:10:16;;;;;;;;;;;24.90;39.70;;;;;;4991065;28;19956;-51
2022/12/22 17:12:41;;;;;;;;;;;24.90;39.80;;;;;;4954554;28;19925;-51
2022/12/22 17:15:07;;;;;;;;;;;24.80;39.70;;;;;;4959499;28;19915;-51
2022/12/22 17:17:32;;;;;;;;;;;24.90;39.70;;;;;;4956140;28;19922;-52
2022/12/22 17:19:57;;;;;;;;;;;24.90;39.70;;;;;;4951838;28;20386;-51
2022/12/22 17:22:24;;;;;;;;;;;25.00;39.70;;;;;;4952336;28;19919;-51
2022/12/22 17:24:50;;;;;;;;;;;24.90;39.60;;;;;;4952999;28;19915;-51
2022/12/22 17:27:16;;;;;;;;;;;24.90;39.70;;;;;;4960855;28;19937;-52
2022/12/22 17:29:41;;;;;;;;;;;24.90;39.70;;;;;;4950656;28;19915;-51
2022/12/22 17:32:10;;;;;;;;;;;24.90;39.70;;;;;;4953973;28;20414;-53
2022/12/22 17:34:36;;;;;;;;;;;25.00;39.60;;;;;;4954847;28;19922;-51
2022/12/22 17:37:01;;;;;;;;;;;25.00;39.60;;;;;;4956111;28;20294;-52
2022/12/22 17:39:26;;;;;;;;;;;25.00;39.50;;;;;;4951600;28;19910;-51
2022/12/22 17:41:52;;;;;;;;;;;25.00;39.60;;;;;;4970081;28;19914;-51
2022/12/22 17:44:18;;;;;;;;;;;24.90;39.70;;;;;;4950221;29;19918;-51
2022/12/22 17:46:43;;;;;;;;;;;24.90;39.80;;;;;;4951522;28;19926;-51
2022/12/22 17:49:09;;;;;;;;;;;24.90;39.70;;;;;;4951629;29;19911;-52
2022/12/22 17:51:34;;;;;;;;;;;24.90;39.70;;;;;;4989642;28;19913;-51
2022/12/22 17:54:00;;;;;;;;;;;25.00;39.60;;;;;;4952586;28;19964;-51
2022/12/22 17:56:25;;;;;;;;;;;25.00;39.60;;;;;;4952923;28;19961;-51
2022/12/22 17:58:51;;;;;;;;;;;25.00;39.50;;;;;;4949678;29;19918;-52
2022/12/22 18:01:20;;;;;;;;;;;25.00;39.60;;;;;;4966345;28;19955;-52